sensor_id;sensor_type;location;lat;lon;timestamp;pressure;altitude;pressure_sealevel;temperature;humidity
64023;BME280;50264;52.088;5.296;2023-02-17T00:02:45;101847.0;;;10.7;100.0
64023;BME280;50264;52.088;5.296;2023-02-17T00:04:21;101848.0;;;10.86;100.0
64023;BME280;50264;52.088;5.296;2023-02-17T00:05:57;101840.0;;;10.82;100.0
64023;BME280;50264;52.088;5.296;2023-02-17T00:09:11;101855.0;;;10.86;99.86
64023;BME280;50264;52.088;5.296;2023-02-17T00:10:54;101843.0;;;10.97;99.61
64023;BME280;50264;52.088;5.296;2023-02-17T00:12:31;101847.0;;;10.84;99.83
64023;BME280;50264;52.088;5.296;2023-02-17T00:14:08;101831.0;;;10.91;99.82
64023;BME280;50264;52.088;5.296;2023-02-17T00:17:23;101837.0;;;10.85;99.79
64023;BME280;50264;52.088;5.296;2023-02-17T00:19:00;101828.0;;;10.8;100.0
64023;BME280;50264;52.088;5.296;2023-02-17T00:20:37;101833.0;;;10.81;100.0
64023;BME280;50264;52.088;5.296;2023-02-17T00:23:50;101827.0;;;10.85;99.84
64023;BME280;50264;52.088;5.296;2023-02-17T00:25:26;101827.0;;;10.84;99.71
64023;BME280;50264;52.088;5.296;2023-02-17T00:27:03;101836.0;;;10.83;99.83
64023;BME280;50264;52.088;5.296;2023-02-17T00:30:17;101832.0;;;10.76;99.94
64023;BME280;50264;52.088;5.296;2023-02-17T00:31:54;101832.0;;;10.85;99.95
64023;BME280;50264;52.088;5.296;2023-02-17T00:33:30;101831.0;;;10.88;99.68
64023;BME280;50264;52.088;5.296;2023-02-17T00:35:07;101828.0;;;10.74;99.79
64023;BME280;50264;52.088;5.296;2023-02-17T00:38:20;101830.0;;;10.81;99.64
64023;BME280;50264;52.088;5.296;2023-02-17T00:39:57;101825.0;;;10.86;99.32
64023;BME280;50264;52.088;5.296;2023-02-17T00:41:33;101824.0;;;10.91;99.23
64023;BME280;50264;52.088;5.296;2023-02-17T00:44:46;101826.0;;;10.93;98.85
64023;BME280;50264;52.088;5.296;2023-02-17T00:46:23;101825.0;;;10.88;98.89
64023;BME280;50264;52.088;5.296;2023-02-17T00:47:59;101824.0;;;10.73;99.6
64023;BME280;50264;52.088;5.296;2023-02-17T00:51:12;101828.0;;;10.76;99.52
64023;BME280;50264;52.088;5.296;2023-02-17T00:52:51;101826.0;;;10.82;99.73
64023;BME280;50264;52.088;5.296;2023-02-17T00:54:27;101826.0;;;10.78;99.25
64023;BME280;50264;52.088;5.296;2023-02-17T00:56:04;101825.0;;;10.73;99.51
64023;BME280;50264;52.088;5.296;2023-02-17T00:59:17;101830.0;;;10.7;99.75
64023;BME280;50264;52.088;5.296;2023-02-17T01:00:54;101827.0;;;10.68;99.8
64023;BME280;50264;52.088;5.296;2023-02-17T01:02:30;101817.0;;;10.59;100.0
64023;BME280;50264;52.088;5.296;2023-02-17T01:05:45;101814.0;;;10.6;100.0
64023;BME280;50264;52.088;5.296;2023-02-17T01:07:23;101814.0;;;10.53;99.94
64023;BME280;50264;52.088;5.296;2023-02-17T01:08:59;101813.0;;;10.63;99.67
64023;BME280;50264;52.088;5.296;2023-02-17T01:12:16;101809.0;;;10.67;99.69
64023;BME280;50264;52.088;5.296;2023-02-17T01:13:53;101807.0;;;10.67;99.8
64023;BME280;50264;52.088;5.296;2023-02-17T01:15:36;101806.0;;;10.73;99.66
64023;BME280;50264;52.088;5.296;2023-02-17T01:17:13;101815.0;;;10.64;99.79
64023;BME280;50264;52.088;5.296;2023-02-17T01:20:26;101817.0;;;10.68;99.37
64023;BME280;50264;52.088;5.296;2023-02-17T01:22:02;101814.0;;;10.58;99.63
64023;BME280;50264;52.088;5.296;2023-02-17T01:23:38;101824.0;;;10.7;99.23
64023;BME280;50264;52.088;5.296;2023-02-17T01:26:51;101826.0;;;10.51;100.0
64023;BME280;50264;52.088;5.296;2023-02-17T01:28:28;101811.0;;;10.38;100.0
64023;BME280;50264;52.088;5.296;2023-02-17T01:30:06;101824.0;;;10.33;100.0
64023;BME280;50264;52.088;5.296;2023-02-17T01:31:43;101825.0;;;10.42;100.0
64023;BME280;50264;52.088;5.296;2023-02-17T01:34:55;101824.0;;;10.45;100.0
64023;BME280;50264;52.088;5.296;2023-02-17T01:36:32;101823.0;;;10.31;100.0
64023;BME280;50264;52.088;5.296;2023-02-17T01:38:08;101826.0;;;10.35;100.0
64023;BME280;50264;52.088;5.296;2023-02-17T01:41:23;101842.0;;;10.28;100.0
64023;BME280;50264;52.088;5.296;2023-02-17T01:43:00;101832.0;;;10.31;100.0
64023;BME280;50264;52.088;5.296;2023-02-17T01:45:29;101831.0;;;10.23;100.0
64023;BME280;50264;52.088;5.296;2023-02-17T01:47:44;101836.0;;;10.14;100.0
64023;BME280;50264;52.088;5.296;2023-02-17T01:49:30;101819.0;;;10.14;100.0
64023;BME280;50264;52.088;5.296;2023-02-17T01:51:11;101822.0;;;10.16;100.0
64023;BME280;50264;52.088;5.296;2023-02-17T01:52:49;101819.0;;;10.19;100.0
64023;BME280;50264;52.088;5.296;2023-02-17T01:56:11;101833.0;;;10.21;100.0
64023;BME280;50264;52.088;5.296;2023-02-17T01:57:50;101827.0;;;10.09;100.0
64023;BME280;50264;52.088;5.296;2023-02-17T01:59:29;101832.0;;;10.13;100.0
64023;BME280;50264;52.088;5.296;2023-02-17T02:01:06;101841.0;;;10.14;100.0
64023;BME280;50264;52.088;5.296;2023-02-17T02:04:28;101828.0;;;10.19;100.0
64023;BME280;50264;52.088;5.296;2023-02-17T02:06:10;101824.0;;;10.18;100.0
64023;BME280;50264;52.088;5.296;2023-02-17T02:07:51;101820.0;;;10.28;100.0
64023;BME280;50264;52.088;5.296;2023-02-17T02:09:31;101807.0;;;10.26;100.0
64023;BME280;50264;52.088;5.296;2023-02-17T02:12:46;101802.0;;;10.1;100.0
64023;BME280;50264;52.088;5.296;2023-02-17T02:14:22;101794.0;;;10.06;100.0
64023;BME280;50264;52.088;5.296;2023-02-17T02:16:06;101792.0;;;10.11;100.0
64023;BME280;50264;52.088;5.296;2023-02-17T02:17:56;101794.0;;;10.06;100.0
64023;BME280;50264;52.088;5.296;2023-02-17T02:20:48;101783.0;;;10.23;100.0
64023;BME280;50264;52.088;5.296;2023-02-17T02:23:31;101783.0;;;10.13;100.0
64023;BME280;50264;52.088;5.296;2023-02-17T02:25:43;101772.0;;;10.13;100.0
64023;BME280;50264;52.088;5.296;2023-02-17T02:27:41;101763.0;;;9.98;100.0
64023;BME280;50264;52.088;5.296;2023-02-17T02:29:46;101757.0;;;10.0;100.0
64023;BME280;50264;52.088;5.296;2023-02-17T02:33:21;101762.0;;;10.18;99.78
64023;BME280;50264;52.088;5.296;2023-02-17T02:35:04;101767.0;;;10.25;99.42
64023;BME280;50264;52.088;5.296;2023-02-17T02:36:47;101764.0;;;10.29;98.87
64023;BME280;50264;52.088;5.296;2023-02-17T02:40:13;101761.0;;;10.24;98.64
64023;BME280;50264;52.088;5.296;2023-02-17T02:41:53;101757.0;;;10.23;98.64
64023;BME280;50264;52.088;5.296;2023-02-17T02:43:32;101762.0;;;10.17;98.77
64023;BME280;50264;52.088;5.296;2023-02-17T02:45:10;101756.0;;;10.17;98.42
64023;BME280;50264;52.088;5.296;2023-02-17T02:48:32;101758.0;;;9.98;98.42
64023;BME280;50264;52.088;5.296;2023-02-17T02:50:12;101757.0;;;10.02;98.79
64023;BME280;50264;52.088;5.296;2023-02-17T02:51:54;101751.0;;;10.02;98.36
64023;BME280;50264;52.088;5.296;2023-02-17T02:53:57;101753.0;;;10.07;98.36
64023;BME280;50264;52.088;5.296;2023-02-17T02:55:46;101758.0;;;10.16;98.14
64023;BME280;50264;52.088;5.296;2023-02-17T02:57:38;101747.0;;;10.14;98.27
64023;BME280;50264;52.088;5.296;2023-02-17T03:01:18;101749.0;;;10.05;98.15
64023;BME280;50264;52.088;5.296;2023-02-17T03:03:02;101741.0;;;10.06;98.36
64023;BME280;50264;52.088;5.296;2023-02-17T03:04:50;101751.0;;;10.03;98.49
64023;BME280;50264;52.088;5.296;2023-02-17T03:06:36;101750.0;;;10.13;98.02
64023;BME280;50264;52.088;5.296;2023-02-17T03:08:19;101749.0;;;10.16;97.82
64023;BME280;50264;52.088;5.296;2023-02-17T03:10:01;101755.0;;;10.15;97.89
64023;BME280;50264;52.088;5.296;2023-02-17T03:13:17;101740.0;;;10.1;97.92
64023;BME280;50264;52.088;5.296;2023-02-17T03:14:59;101745.0;;;10.21;97.77
64023;BME280;50264;52.088;5.296;2023-02-17T03:16:37;101752.0;;;10.02;98.36
64023;BME280;50264;52.088;5.296;2023-02-17T03:18:14;101748.0;;;10.07;98.88
64023;BME280;50264;52.088;5.296;2023-02-17T03:21:33;101746.0;;;10.09;98.86
64023;BME280;50264;52.088;5.296;2023-02-17T03:23:11;101739.0;;;10.03;99.2
64023;BME280;50264;52.088;5.296;2023-02-17T03:24:48;101740.0;;;10.03;99.55
64023;BME280;50264;52.088;5.296;2023-02-17T03:28:01;101737.0;;;10.06;99.63
64023;BME280;50264;52.088;5.296;2023-02-17T03:29:37;101732.0;;;10.01;99.77
64023;BME280;50264;52.088;5.296;2023-02-17T03:31:14;101728.0;;;10.07;99.65
64023;BME280;50264;52.088;5.296;2023-02-17T03:34:26;101713.0;;;10.13;99.44
64023;BME280;50264;52.088;5.296;2023-02-17T03:36:03;101705.0;;;10.11;99.12
64023;BME280;50264;52.088;5.296;2023-02-17T03:37:40;101705.0;;;10.16;99.46
64023;BME280;50264;52.088;5.296;2023-02-17T03:39:16;101696.0;;;10.24;99.08
64023;BME280;50264;52.088;5.296;2023-02-17T03:42:29;101698.0;;;10.16;99.08
64023;BME280;50264;52.088;5.296;2023-02-17T03:44:06;101685.0;;;10.14;99.35
64023;BME280;50264;52.088;5.296;2023-02-17T03:45:42;101687.0;;;10.1;99.52
64023;BME280;50264;52.088;5.296;2023-02-17T03:48:55;101689.0;;;10.15;99.44
64023;BME280;50264;52.088;5.296;2023-02-17T03:50:31;101697.0;;;10.08;99.84
64023;BME280;50264;52.088;5.296;2023-02-17T03:52:07;101694.0;;;10.18;99.64
64023;BME280;50264;52.088;5.296;2023-02-17T03:55:21;101700.0;;;10.28;99.06
64023;BME280;50264;52.088;5.296;2023-02-17T03:56:58;101695.0;;;10.4;98.41
64023;BME280;50264;52.088;5.296;2023-02-17T03:58:35;101709.0;;;10.27;98.79
64023;BME280;50264;52.088;5.296;2023-02-17T04:00:11;101695.0;;;10.31;98.63
64023;BME280;50264;52.088;5.296;2023-02-17T04:03:24;101698.0;;;10.31;98.65
64023;BME280;50264;52.088;5.296;2023-02-17T04:05:00;101694.0;;;10.47;98.21
64023;BME280;50264;52.088;5.296;2023-02-17T04:06:37;101688.0;;;10.54;97.62
64023;BME280;50264;52.088;5.296;2023-02-17T04:09:49;101698.0;;;10.46;98.17
64023;BME280;50264;52.088;5.296;2023-02-17T04:11:26;101702.0;;;10.45;98.04
64023;BME280;50264;52.088;5.296;2023-02-17T04:13:02;101701.0;;;10.52;97.88
64023;BME280;50264;52.088;5.296;2023-02-17T04:16:14;101707.0;;;10.56;97.77
64023;BME280;50264;52.088;5.296;2023-02-17T04:17:50;101698.0;;;10.43;98.06
64023;BME280;50264;52.088;5.296;2023-02-17T04:19:26;101699.0;;;10.35;98.75
64023;BME280;50264;52.088;5.296;2023-02-17T04:21:03;101702.0;;;10.42;98.75
64023;BME280;50264;52.088;5.296;2023-02-17T04:24:17;101700.0;;;10.47;98.38
64023;BME280;50264;52.088;5.296;2023-02-17T04:25:53;101708.0;;;10.54;98.1
64023;BME280;50264;52.088;5.296;2023-02-17T04:27:29;101716.0;;;10.46;98.67
64023;BME280;50264;52.088;5.296;2023-02-17T04:30:42;101715.0;;;10.48;98.35
64023;BME280;50264;52.088;5.296;2023-02-17T04:32:19;101711.0;;;10.5;98.44
64023;BME280;50264;52.088;5.296;2023-02-17T04:33:56;101710.0;;;10.53;98.18
64023;BME280;50264;52.088;5.296;2023-02-17T04:37:08;101703.0;;;10.51;98.38
64023;BME280;50264;52.088;5.296;2023-02-17T04:38:44;101702.0;;;10.5;98.42
64023;BME280;50264;52.088;5.296;2023-02-17T04:40:20;101687.0;;;10.45;98.66
64023;BME280;50264;52.088;5.296;2023-02-17T04:41:57;101678.0;;;10.49;98.72
64023;BME280;50264;52.088;5.296;2023-02-17T04:45:10;101682.0;;;10.6;98.34
64023;BME280;50264;52.088;5.296;2023-02-17T04:46:47;101695.0;;;10.64;98.55
64023;BME280;50264;52.088;5.296;2023-02-17T04:48:24;101698.0;;;10.63;98.56
64023;BME280;50264;52.088;5.296;2023-02-17T04:51:39;101696.0;;;10.48;99.09
64023;BME280;50264;52.088;5.296;2023-02-17T04:53:16;101687.0;;;10.52;98.92
64023;BME280;50264;52.088;5.296;2023-02-17T04:54:53;101680.0;;;10.58;98.96
64023;BME280;50264;52.088;5.296;2023-02-17T04:58:06;101676.0;;;10.54;99.11
64023;BME280;50264;52.088;5.296;2023-02-17T04:59:44;101675.0;;;10.57;98.63
64023;BME280;50264;52.088;5.296;2023-02-17T05:01:20;101676.0;;;10.68;98.42
64023;BME280;50264;52.088;5.296;2023-02-17T05:02:56;101675.0;;;10.61;98.45
64023;BME280;50264;52.088;5.296;2023-02-17T05:06:10;101684.0;;;10.44;99.27
64023;BME280;50264;52.088;5.296;2023-02-17T05:07:47;101690.0;;;10.5;99.25
64023;BME280;50264;52.088;5.296;2023-02-17T05:09:23;101690.0;;;10.5;99.43
64023;BME280;50264;52.088;5.296;2023-02-17T05:12:36;101695.0;;;10.54;98.77
64023;BME280;50264;52.088;5.296;2023-02-17T05:14:13;101701.0;;;10.52;99.07
64023;BME280;50264;52.088;5.296;2023-02-17T05:15:49;101698.0;;;10.45;99.25
64023;BME280;50264;52.088;5.296;2023-02-17T05:19:01;101705.0;;;10.46;99.42
64023;BME280;50264;52.088;5.296;2023-02-17T05:20:39;101706.0;;;10.6;98.94
64023;BME280;50264;52.088;5.296;2023-02-17T05:22:15;101708.0;;;10.66;98.56
64023;BME280;50264;52.088;5.296;2023-02-17T05:23:52;101710.0;;;10.58;98.76
64023;BME280;50264;52.088;5.296;2023-02-17T05:27:05;101701.0;;;10.56;99.28
64023;BME280;50264;52.088;5.296;2023-02-17T05:28:41;101688.0;;;10.47;99.66
64023;BME280;50264;52.088;5.296;2023-02-17T05:30:17;101680.0;;;10.47;99.75
64023;BME280;50264;52.088;5.296;2023-02-17T05:33:30;101684.0;;;10.47;99.86
64023;BME280;50264;52.088;5.296;2023-02-17T05:35:08;101695.0;;;10.41;100.0
64023;BME280;50264;52.088;5.296;2023-02-17T05:36:44;101705.0;;;10.41;100.0
64023;BME280;50264;52.088;5.296;2023-02-17T05:39:57;101690.0;;;10.54;99.93
64023;BME280;50264;52.088;5.296;2023-02-17T05:41:33;101700.0;;;10.63;99.83
64023;BME280;50264;52.088;5.296;2023-02-17T05:43:09;101681.0;;;10.65;99.86
64023;BME280;50264;52.088;5.296;2023-02-17T05:44:45;101673.0;;;10.58;100.0
64023;BME280;50264;52.088;5.296;2023-02-17T05:47:58;101686.0;;;10.68;100.0
64023;BME280;50264;52.088;5.296;2023-02-17T05:49:34;101694.0;;;10.67;100.0
64023;BME280;50264;52.088;5.296;2023-02-17T05:51:12;101695.0;;;10.64;100.0
64023;BME280;50264;52.088;5.296;2023-02-17T05:54:25;101691.0;;;10.66;100.0
64023;BME280;50264;52.088;5.296;2023-02-17T05:56:01;101688.0;;;10.58;100.0
64023;BME280;50264;52.088;5.296;2023-02-17T05:57:37;101669.0;;;10.54;100.0
64023;BME280;50264;52.088;5.296;2023-02-17T06:00:50;101682.0;;;10.52;100.0
64023;BME280;50264;52.088;5.296;2023-02-17T06:02:26;101674.0;;;10.55;100.0
64023;BME280;50264;52.088;5.296;2023-02-17T06:04:02;101668.0;;;10.58;100.0
64023;BME280;50264;52.088;5.296;2023-02-17T06:05:38;101666.0;;;10.59;100.0
64023;BME280;50264;52.088;5.296;2023-02-17T06:08:51;101668.0;;;10.64;100.0
64023;BME280;50264;52.088;5.296;2023-02-17T06:10:27;101664.0;;;10.54;100.0
64023;BME280;50264;52.088;5.296;2023-02-17T06:12:05;101670.0;;;10.43;100.0
64023;BME280;50264;52.088;5.296;2023-02-17T06:15:17;101674.0;;;10.5;100.0
64023;BME280;50264;52.088;5.296;2023-02-17T06:16:55;101667.0;;;10.4;100.0
64023;BME280;50264;52.088;5.296;2023-02-17T06:18:32;101665.0;;;10.53;100.0
64023;BME280;50264;52.088;5.296;2023-02-17T06:21:45;101668.0;;;10.48;100.0
64023;BME280;50264;52.088;5.296;2023-02-17T06:23:22;101673.0;;;10.38;100.0
64023;BME280;50264;52.088;5.296;2023-02-17T06:24:59;101678.0;;;10.5;100.0
64023;BME280;50264;52.088;5.296;2023-02-17T06:26:35;101671.0;;;10.47;100.0
64023;BME280;50264;52.088;5.296;2023-02-17T06:29:47;101660.0;;;10.48;100.0
64023;BME280;50264;52.088;5.296;2023-02-17T06:31:24;101667.0;;;10.48;100.0
64023;BME280;50264;52.088;5.296;2023-02-17T06:33:00;101669.0;;;10.47;100.0
64023;BME280;50264;52.088;5.296;2023-02-17T06:36:13;101669.0;;;10.58;100.0
64023;BME280;50264;52.088;5.296;2023-02-17T06:37:49;101665.0;;;10.48;100.0
64023;BME280;50264;52.088;5.296;2023-02-17T06:39:26;101652.0;;;10.49;100.0
64023;BME280;50264;52.088;5.296;2023-02-17T06:42:38;101647.0;;;10.48;100.0
64023;BME280;50264;52.088;5.296;2023-02-17T06:44:14;101636.0;;;10.59;100.0
64023;BME280;50264;52.088;5.296;2023-02-17T06:45:52;101637.0;;;10.58;100.0
64023;BME280;50264;52.088;5.296;2023-02-17T06:47:28;101626.0;;;10.58;100.0
64023;BME280;50264;52.088;5.296;2023-02-17T06:50:41;101632.0;;;10.68;100.0
64023;BME280;50264;52.088;5.296;2023-02-17T06:52:17;101634.0;;;10.64;100.0
64023;BME280;50264;52.088;5.296;2023-02-17T06:53:54;101653.0;;;10.64;100.0
64023;BME280;50264;52.088;5.296;2023-02-17T06:57:06;101634.0;;;10.67;100.0
64023;BME280;50264;52.088;5.296;2023-02-17T06:58:43;101634.0;;;10.74;100.0
64023;BME280;50264;52.088;5.296;2023-02-17T07:00:20;101630.0;;;10.71;100.0
64023;BME280;50264;52.088;5.296;2023-02-17T07:03:33;101638.0;;;10.69;100.0
64023;BME280;50264;52.088;5.296;2023-02-17T07:05:09;101640.0;;;10.67;100.0
64023;BME280;50264;52.088;5.296;2023-02-17T07:06:45;101626.0;;;10.67;100.0
64023;BME280;50264;52.088;5.296;2023-02-17T07:08:22;101631.0;;;10.65;100.0
64023;BME280;50264;52.088;5.296;2023-02-17T07:11:34;101626.0;;;10.6;100.0
64023;BME280;50264;52.088;5.296;2023-02-17T07:13:10;101630.0;;;10.69;100.0
64023;BME280;50264;52.088;5.296;2023-02-17T07:14:46;101617.0;;;10.75;100.0
64023;BME280;50264;52.088;5.296;2023-02-17T07:18:00;101636.0;;;10.81;100.0
64023;BME280;50264;52.088;5.296;2023-02-17T07:19:37;101636.0;;;10.87;100.0
64023;BME280;50264;52.088;5.296;2023-02-17T07:21:13;101644.0;;;10.87;100.0
64023;BME280;50264;52.088;5.296;2023-02-17T07:24:26;101655.0;;;10.92;100.0
64023;BME280;50264;52.088;5.296;2023-02-17T07:26:03;101671.0;;;10.98;100.0
64023;BME280;50264;52.088;5.296;2023-02-17T07:27:40;101663.0;;;11.05;100.0
64023;BME280;50264;52.088;5.296;2023-02-17T07:30:53;101656.0;;;10.88;100.0
64023;BME280;50264;52.088;5.296;2023-02-17T07:32:29;101652.0;;;10.93;100.0
64023;BME280;50264;52.088;5.296;2023-02-17T07:34:05;101662.0;;;10.86;100.0
64023;BME280;50264;52.088;5.296;2023-02-17T07:35:42;101662.0;;;10.86;100.0
64023;BME280;50264;52.088;5.296;2023-02-17T07:38:56;101649.0;;;10.87;100.0
64023;BME280;50264;52.088;5.296;2023-02-17T07:40:33;101640.0;;;10.98;100.0
64023;BME280;50264;52.088;5.296;2023-02-17T07:42:09;101648.0;;;10.98;100.0
64023;BME280;50264;52.088;5.296;2023-02-17T07:45:23;101636.0;;;10.99;100.0
64023;BME280;50264;52.088;5.296;2023-02-17T07:46:59;101628.0;;;11.12;99.7
64023;BME280;50264;52.088;5.296;2023-02-17T07:48:35;101634.0;;;11.18;99.15
64023;BME280;50264;52.088;5.296;2023-02-17T07:50:12;101639.0;;;11.1;99.46
64023;BME280;50264;52.088;5.296;2023-02-17T08:03:47;101650.0;;;11.13;99.46
64023;BME280;50264;52.088;5.296;2023-02-17T08:05:25;101653.0;;;11.02;99.55
64023;BME280;50264;52.088;5.296;2023-02-17T08:07:01;101650.0;;;11.07;99.68
64023;BME280;50264;52.088;5.296;2023-02-17T08:13:34;101668.0;;;11.31;98.28
64023;BME280;50264;52.088;5.296;2023-02-17T08:15:11;101653.0;;;11.34;97.57
64023;BME280;50264;52.088;5.296;2023-02-17T08:16:48;101673.0;;;11.25;98.26
64023;BME280;50264;52.088;5.296;2023-02-17T08:18:25;101681.0;;;11.32;98.19
64023;BME280;50264;52.088;5.296;2023-02-17T08:20:01;101676.0;;;11.33;97.92
64023;BME280;50264;52.088;5.296;2023-02-17T08:21:38;101682.0;;;11.22;98.28
64023;BME280;50264;52.088;5.296;2023-02-17T08:24:51;101669.0;;;11.28;97.93
64023;BME280;50264;52.088;5.296;2023-02-17T08:26:27;101682.0;;;11.32;97.78
64023;BME280;50264;52.088;5.296;2023-02-17T08:28:04;101678.0;;;11.33;97.59
64023;BME280;50264;52.088;5.296;2023-02-17T08:31:19;101689.0;;;11.51;96.92
64023;BME280;50264;52.088;5.296;2023-02-17T08:32:56;101684.0;;;11.6;96.72
64023;BME280;50264;52.088;5.296;2023-02-17T08:34:33;101684.0;;;11.54;96.64
64023;BME280;50264;52.088;5.296;2023-02-17T08:37:47;101686.0;;;11.56;96.42
64023;BME280;50264;52.088;5.296;2023-02-17T08:39:25;101680.0;;;11.54;96.04
64023;BME280;50264;52.088;5.296;2023-02-17T08:41:10;101693.0;;;11.47;96.47
64023;BME280;50264;52.088;5.296;2023-02-17T08:42:47;101694.0;;;11.53;96.2
64023;BME280;50264;52.088;5.296;2023-02-17T08:46:00;101698.0;;;11.61;95.96
64023;BME280;50264;52.088;5.296;2023-02-17T08:47:37;101691.0;;;11.6;95.81
64023;BME280;50264;52.088;5.296;2023-02-17T08:49:14;101689.0;;;11.56;95.36
64023;BME280;50264;52.088;5.296;2023-02-17T08:52:27;101688.0;;;11.54;95.23
64023;BME280;50264;52.088;5.296;2023-02-17T08:54:04;101705.0;;;11.51;95.46
64023;BME280;50264;52.088;5.296;2023-02-17T08:55:42;101698.0;;;11.44;95.6
64023;BME280;50264;52.088;5.296;2023-02-17T08:57:19;101698.0;;;11.52;95.76
64023;BME280;50264;52.088;5.296;2023-02-17T09:00:33;101705.0;;;11.6;95.33
64023;BME280;50264;52.088;5.296;2023-02-17T09:02:09;101703.0;;;11.55;95.12
64023;BME280;50264;52.088;5.296;2023-02-17T09:03:47;101706.0;;;11.69;94.71
64023;BME280;50264;52.088;5.296;2023-02-17T09:07:01;101701.0;;;11.59;94.72
64023;BME280;50264;52.088;5.296;2023-02-17T09:08:39;101708.0;;;11.72;94.69
64023;BME280;50264;52.088;5.296;2023-02-17T09:10:16;101703.0;;;11.59;94.79
64023;BME280;50264;52.088;5.296;2023-02-17T09:11:55;101706.0;;;11.6;94.86
64023;BME280;50264;52.088;5.296;2023-02-17T09:15:09;101714.0;;;11.8;94.53
64023;BME280;50264;52.088;5.296;2023-02-17T09:16:45;101717.0;;;11.69;94.82
64023;BME280;50264;52.088;5.296;2023-02-17T09:18:22;101716.0;;;11.71;95.03
64023;BME280;50264;52.088;5.296;2023-02-17T09:21:35;101720.0;;;11.75;94.69
64023;BME280;50264;52.088;5.296;2023-02-17T09:23:12;101710.0;;;11.87;93.85
64023;BME280;50264;52.088;5.296;2023-02-17T09:24:48;101715.0;;;11.82;93.81
64023;BME280;50264;52.088;5.296;2023-02-17T09:28:00;101716.0;;;11.84;93.69
64023;BME280;50264;52.088;5.296;2023-02-17T09:29:37;101724.0;;;11.84;94.01
64023;BME280;50264;52.088;5.296;2023-02-17T09:31:16;101709.0;;;11.8;93.95
64023;BME280;50264;52.088;5.296;2023-02-17T09:32:54;101707.0;;;11.82;93.89
64023;BME280;50264;52.088;5.296;2023-02-17T09:36:13;101698.0;;;11.68;94.56
64023;BME280;50264;52.088;5.296;2023-02-17T09:37:50;101717.0;;;11.79;94.0
64023;BME280;50264;52.088;5.296;2023-02-17T09:39:27;101708.0;;;11.76;93.54
64023;BME280;50264;52.088;5.296;2023-02-17T09:42:50;101706.0;;;11.75;93.79
64023;BME280;50264;52.088;5.296;2023-02-17T09:44:32;101705.0;;;11.73;93.72
64023;BME280;50264;52.088;5.296;2023-02-17T09:46:22;101700.0;;;11.68;93.95
64023;BME280;50264;52.088;5.296;2023-02-17T09:48:04;101715.0;;;11.75;94.61
64023;BME280;50264;52.088;5.296;2023-02-17T09:49:45;101705.0;;;11.7;94.68
64023;BME280;50264;52.088;5.296;2023-02-17T09:53:07;101716.0;;;11.79;93.51
64023;BME280;50264;52.088;5.296;2023-02-17T09:54:58;101726.0;;;11.74;93.59
64023;BME280;50264;52.088;5.296;2023-02-17T09:56:40;101705.0;;;11.87;93.71
64023;BME280;50264;52.088;5.296;2023-02-17T09:58:19;101706.0;;;11.83;93.58
64023;BME280;50264;52.088;5.296;2023-02-17T10:00:01;101697.0;;;11.75;92.92
64023;BME280;50264;52.088;5.296;2023-02-17T10:03:24;101701.0;;;11.84;93.58
64023;BME280;50264;52.088;5.296;2023-02-17T10:05:07;101699.0;;;11.91;92.94
64023;BME280;50264;52.088;5.296;2023-02-17T10:06:50;101703.0;;;11.9;93.01
64023;BME280;50264;52.088;5.296;2023-02-17T10:08:31;101717.0;;;11.88;93.46
64023;BME280;50264;52.088;5.296;2023-02-17T10:11:55;101727.0;;;11.78;93.32
64023;BME280;50264;52.088;5.296;2023-02-17T10:13:36;101737.0;;;11.69;93.89
64023;BME280;50264;52.088;5.296;2023-02-17T10:15:21;101711.0;;;11.75;93.66
64023;BME280;50264;52.088;5.296;2023-02-17T10:17:02;101710.0;;;11.78;93.43
64023;BME280;50264;52.088;5.296;2023-02-17T10:20:27;101712.0;;;11.86;93.06
64023;BME280;50264;52.088;5.296;2023-02-17T10:22:10;101742.0;;;11.83;93.4
64023;BME280;50264;52.088;5.296;2023-02-17T10:23:50;101733.0;;;11.87;93.87
64023;BME280;50264;52.088;5.296;2023-02-17T10:25:48;101736.0;;;11.92;93.35
64023;BME280;50264;52.088;5.296;2023-02-17T10:27:35;101740.0;;;11.78;93.39
64023;BME280;50264;52.088;5.296;2023-02-17T10:29:19;101728.0;;;11.79;93.33
64023;BME280;50264;52.088;5.296;2023-02-17T10:32:58;101731.0;;;11.74;94.1
64023;BME280;50264;52.088;5.296;2023-02-17T10:34:37;101740.0;;;11.83;93.92
64023;BME280;50264;52.088;5.296;2023-02-17T10:36:24;101743.0;;;11.82;94.0
64023;BME280;50264;52.088;5.296;2023-02-17T10:38:13;101734.0;;;11.75;94.22
64023;BME280;50264;52.088;5.296;2023-02-17T10:39:54;101732.0;;;11.82;93.25
64023;BME280;50264;52.088;5.296;2023-02-17T10:43:20;101721.0;;;11.93;93.17
64023;BME280;50264;52.088;5.296;2023-02-17T10:45:03;101735.0;;;11.89;92.98
64023;BME280;50264;52.088;5.296;2023-02-17T10:46:48;101752.0;;;11.69;94.38
64023;BME280;50264;52.088;5.296;2023-02-17T10:48:33;101725.0;;;11.7;94.22
64023;BME280;50264;52.088;5.296;2023-02-17T10:50:16;101718.0;;;11.73;93.69
64023;BME280;50264;52.088;5.296;2023-02-17T10:53:38;101725.0;;;11.73;94.79
64023;BME280;50264;52.088;5.296;2023-02-17T10:55:20;101733.0;;;11.78;94.31
64023;BME280;50264;52.088;5.296;2023-02-17T10:57:07;101731.0;;;11.8;94.02
64023;BME280;50264;52.088;5.296;2023-02-17T10:58:49;101734.0;;;11.77;94.17
64023;BME280;50264;52.088;5.296;2023-02-17T11:02:18;101748.0;;;11.88;93.61
64023;BME280;50264;52.088;5.296;2023-02-17T11:04:01;101746.0;;;11.9;93.66
64023;BME280;50264;52.088;5.296;2023-02-17T11:05:40;101756.0;;;11.94;93.41
64023;BME280;50264;52.088;5.296;2023-02-17T11:07:22;101769.0;;;12.05;93.39
64023;BME280;50264;52.088;5.296;2023-02-17T11:09:17;101761.0;;;11.99;93.41
64023;BME280;50264;52.088;5.296;2023-02-17T11:12:38;101756.0;;;11.91;93.45
64023;BME280;50264;52.088;5.296;2023-02-17T11:14:18;101755.0;;;11.96;93.71
64023;BME280;50264;52.088;5.296;2023-02-17T11:15:59;101753.0;;;12.06;92.84
64023;BME280;50264;52.088;5.296;2023-02-17T11:17:37;101748.0;;;11.98;92.63
64023;BME280;50264;52.088;5.296;2023-02-17T11:21:01;101763.0;;;11.84;93.67
64023;BME280;50264;52.088;5.296;2023-02-17T11:22:42;101761.0;;;11.98;93.2